createdAt,value
2022-12-13T00:00:19.410Z,17.63
2022-12-13T00:02:51.663Z,15.38
2022-12-13T00:05:23.603Z,16.17
2022-12-13T00:07:55.807Z,16.27
2022-12-13T00:10:28.918Z,15.82
2022-12-13T00:13:00.973Z,18.85
2022-12-13T00:15:32.930Z,17.80
2022-12-13T00:18:04.975Z,16.23
2022-12-13T00:20:40.805Z,16.55
2022-12-13T00:23:12.681Z,16.67
2022-12-13T00:25:44.889Z,17.58
2022-12-13T00:28:17.672Z,16.70
2022-12-13T00:30:49.764Z,17.98
2022-12-13T00:33:21.710Z,17.08
2022-12-13T00:35:54.088Z,16.95
2022-12-13T00:38:26.373Z,16.73
2022-12-13T00:40:58.356Z,17.25
2022-12-13T00:43:30.717Z,16.40
2022-12-13T00:46:03.954Z,17.10
2022-12-13T00:48:38.105Z,16.20
2022-12-13T00:51:12.203Z,16.75
2022-12-13T00:53:44.591Z,17.23
2022-12-13T00:56:21.329Z,15.80
2022-12-13T00:58:59.862Z,16.48
2022-12-13T01:01:36.002Z,15.43
2022-12-13T01:04:08.090Z,17.02
2022-12-13T01:06:44.752Z,16.63
2022-12-13T01:09:21.937Z,17.65
2022-12-13T01:12:01.068Z,17.75
2022-12-13T01:14:36.738Z,16.75
2022-12-13T01:17:10.831Z,16.92
2022-12-13T01:19:42.984Z,17.67
2022-12-13T01:22:15.094Z,17.08
2022-12-13T01:24:47.297Z,17.58
2022-12-13T01:27:19.483Z,18.65
2022-12-13T01:29:51.490Z,16.35
2022-12-13T01:32:23.422Z,16.60
2022-12-13T01:34:55.558Z,16.50
2022-12-13T01:37:27.495Z,18.70
2022-12-13T01:39:59.494Z,15.20
2022-12-13T01:42:32.504Z,17.15
2022-12-13T01:45:22.397Z,17.05
2022-12-13T01:48:07.551Z,18.48
2022-12-13T01:50:50.191Z,17.77
2022-12-13T01:53:29.456Z,19.38
2022-12-13T01:56:11.264Z,16.52
2022-12-13T01:58:49.956Z,17.52
2022-12-13T02:01:24.483Z,18.42
2022-12-13T02:03:56.546Z,17.10
2022-12-13T02:06:36.620Z,18.85
2022-12-13T02:09:14.789Z,17.92
2022-12-13T02:11:47.304Z,16.92
2022-12-13T02:14:19.899Z,16.80
2022-12-13T02:17:30.283Z,16.73
2022-12-13T02:20:40.629Z,17.88
2022-12-13T02:23:26.033Z,16.00
2022-12-13T02:26:21.487Z,15.15
2022-12-13T02:29:30.707Z,19.30
2022-12-13T02:32:39.651Z,16.98
2022-12-13T02:35:39.782Z,17.02
2022-12-13T02:38:41.526Z,17.63
2022-12-13T02:41:36.418Z,17.95
2022-12-13T02:44:22.814Z,19.60
2022-12-13T02:47:05.367Z,18.38
2022-12-13T02:49:54.306Z,16.40
2022-12-13T02:52:31.853Z,18.45
2022-12-13T02:55:09.303Z,17.55
2022-12-13T02:57:45.939Z,18.58
2022-12-13T03:00:19.403Z,19.80
2022-12-13T03:03:23.270Z,16.58
2022-12-13T03:06:34.184Z,17.10
2022-12-13T03:09:59.868Z,16.10
2022-12-13T03:13:15.115Z,18.08
2022-12-13T03:16:41.028Z,16.70
2022-12-13T03:19:14.941Z,19.30
2022-12-13T03:21:49.679Z,17.27
2022-12-13T03:24:22.067Z,17.80
2022-12-13T03:26:54.122Z,20.05
2022-12-13T03:29:26.148Z,20.35
2022-12-13T03:31:58.201Z,19.70
2022-12-13T03:34:43.305Z,16.75
2022-12-13T03:37:18.689Z,18.55
2022-12-13T03:39:51.108Z,17.40
2022-12-13T03:42:23.165Z,19.50
2022-12-13T03:44:55.129Z,20.20
2022-12-13T03:47:27.253Z,18.38
2022-12-13T03:49:59.235Z,17.73
2022-12-13T03:52:51.939Z,16.50
2022-12-13T03:55:30.192Z,18.27
2022-12-13T03:58:07.742Z,17.73
2022-12-13T04:00:40.951Z,18.30
2022-12-13T04:03:13.063Z,16.88
2022-12-13T04:05:54.718Z,18.98
2022-12-13T04:08:26.726Z,17.05
2022-12-13T04:10:58.802Z,18.55
2022-12-13T04:13:33.599Z,18.40
2022-12-13T04:16:06.040Z,15.85
2022-12-13T04:18:38.591Z,18.30
2022-12-13T04:21:10.818Z,18.63
2022-12-13T04:23:42.881Z,19.25
2022-12-13T04:26:14.970Z,20.48
2022-12-13T04:28:52.657Z,18.80
2022-12-13T04:31:27.076Z,19.20
2022-12-13T04:33:59.186Z,17.15
2022-12-13T04:36:32.851Z,17.40
2022-12-13T04:39:22.297Z,16.05
2022-12-13T04:41:55.039Z,15.98
2022-12-13T04:44:28.986Z,17.40
2022-12-13T04:47:02.773Z,19.17
2022-12-13T04:49:35.527Z,18.30
2022-12-13T04:52:07.797Z,16.92
2022-12-13T04:54:40.652Z,17.98
2022-12-13T04:57:13.182Z,19.45
2022-12-13T04:59:47.014Z,18.13
2022-12-13T05:02:23.395Z,16.63
2022-12-13T05:04:56.134Z,18.77
2022-12-13T05:07:28.330Z,16.92
2022-12-13T05:10:00.230Z,16.98
2022-12-13T05:12:32.375Z,17.38
2022-12-13T05:15:05.275Z,17.42
2022-12-13T05:17:37.802Z,19.95
2022-12-13T05:20:10.432Z,18.17
2022-12-13T05:22:42.489Z,17.23
2022-12-13T05:25:15.631Z,18.88
2022-12-13T05:27:48.023Z,17.35
2022-12-13T05:30:20.656Z,17.50
2022-12-13T05:32:52.656Z,16.38
2022-12-13T05:35:24.925Z,14.60
2022-12-13T05:37:57.508Z,17.20
2022-12-13T05:40:31.428Z,15.48
2022-12-13T05:43:03.647Z,17.20
2022-12-13T05:45:54.686Z,15.18
2022-12-13T05:48:26.693Z,16.92
2022-12-13T05:51:10.973Z,16.00
2022-12-13T05:53:45.257Z,17.10
2022-12-13T05:56:22.653Z,16.70
2022-12-13T05:58:55.502Z,16.35
2022-12-13T06:01:27.450Z,16.83
2022-12-13T06:03:59.803Z,17.08
2022-12-13T06:06:32.033Z,17.77
2022-12-13T06:09:04.493Z,17.58
2022-12-13T06:11:43.284Z,17.75
2022-12-13T06:14:21.356Z,15.68
2022-12-13T06:16:55.229Z,17.00
2022-12-13T06:19:27.928Z,17.60
2022-12-13T06:22:00.058Z,15.63
2022-12-13T06:24:32.242Z,17.77
2022-12-13T06:27:05.364Z,16.75
2022-12-13T06:29:37.669Z,14.85
2022-12-13T06:32:10.758Z,15.77
2022-12-13T06:34:42.778Z,17.63
2022-12-13T06:37:15.288Z,17.17
2022-12-13T06:39:50.389Z,16.08
2022-12-13T06:42:22.680Z,15.10
2022-12-13T06:44:56.181Z,15.23
2022-12-13T06:47:31.276Z,17.30
2022-12-13T06:50:06.007Z,16.05
2022-12-13T06:52:38.573Z,15.70
2022-12-13T06:55:10.628Z,18.33
2022-12-13T06:57:43.917Z,16.65
2022-12-13T07:00:22.259Z,15.98
2022-12-13T07:06:14.917Z,15.93
2022-12-13T07:08:52.035Z,15.55
2022-12-13T07:11:30.300Z,16.88
2022-12-13T07:14:03.692Z,17.00
2022-12-13T07:16:35.924Z,15.73
2022-12-13T07:19:22.730Z,19.23
2022-12-13T07:21:56.577Z,17.77
2022-12-13T07:24:41.062Z,18.83
2022-12-13T07:27:13.127Z,17.98
2022-12-13T07:29:45.258Z,17.02
2022-12-13T07:32:17.433Z,17.08
2022-12-13T07:34:49.716Z,19.73
2022-12-13T07:37:30.076Z,17.33
2022-12-13T07:40:06.517Z,17.13
2022-12-13T07:42:40.017Z,19.13
2022-12-13T07:45:12.430Z,17.55
2022-12-13T07:47:44.865Z,17.80
2022-12-13T07:50:24.737Z,17.30
2022-12-13T07:52:59.043Z,18.83
2022-12-13T07:55:36.569Z,17.33
2022-12-13T07:58:11.837Z,19.80
2022-12-13T08:00:47.404Z,17.80
2022-12-13T08:03:25.423Z,18.30
2022-12-13T08:06:04.694Z,19.40
2022-12-13T08:08:40.156Z,18.60
2022-12-13T08:11:17.555Z,18.05
2022-12-13T08:13:51.202Z,17.20
2022-12-13T08:16:27.402Z,16.90
2022-12-13T08:19:04.406Z,18.23
2022-12-13T08:21:56.732Z,17.58
2022-12-13T08:24:31.107Z,17.63
2022-12-13T08:27:03.809Z,19.00
2022-12-13T08:29:36.729Z,18.25
2022-12-13T08:32:14.392Z,16.55
2022-12-13T08:34:46.551Z,16.92
2022-12-13T08:37:19.489Z,17.88
2022-12-13T08:39:51.800Z,17.33
2022-12-13T08:42:25.349Z,17.75
2022-12-13T08:44:58.489Z,17.80
2022-12-13T08:47:30.825Z,16.63
2022-12-13T08:50:04.413Z,18.30
2022-12-13T08:52:40.735Z,16.50
2022-12-13T08:55:25.005Z,15.02
2022-12-13T08:58:08.412Z,16.40
2022-12-13T09:00:42.914Z,15.95
2022-12-13T09:03:17.214Z,17.88
2022-12-13T09:05:50.394Z,17.67
2022-12-13T09:08:25.547Z,17.67
2022-12-13T09:11:00.146Z,17.27
2022-12-13T09:13:43.116Z,17.73
2022-12-13T09:16:35.659Z,15.85
2022-12-13T09:19:26.215Z,18.83
2022-12-13T09:22:02.339Z,17.27
2022-12-13T09:24:37.147Z,16.73
2022-12-13T09:27:10.446Z,19.50
2022-12-13T09:30:00.933Z,17.75
2022-12-13T09:32:33.975Z,20.30
2022-12-13T09:35:06.971Z,16.67
2022-12-13T09:37:45.562Z,15.65
2022-12-13T09:40:37.976Z,17.63
2022-12-13T09:43:23.007Z,17.10
2022-12-13T09:46:34.812Z,17.02
2022-12-13T09:49:35.301Z,16.77
2022-12-13T09:52:21.661Z,18.55
2022-12-13T09:54:57.546Z,15.45
2022-12-13T09:57:34.171Z,19.08
2022-12-13T10:00:14.190Z,17.25
2022-12-13T10:02:54.040Z,16.77
2022-12-13T10:05:39.573Z,17.83
2022-12-13T10:08:40.629Z,16.30
2022-12-13T10:11:18.029Z,16.20
2022-12-13T10:14:10.940Z,14.30
2022-12-13T10:16:51.475Z,17.45
2022-12-13T10:19:39.287Z,15.60
2022-12-13T10:22:17.089Z,17.25
2022-12-13T10:24:57.723Z,18.52
2022-12-13T10:27:38.464Z,17.05
2022-12-13T10:30:26.172Z,16.80
2022-12-13T10:33:37.600Z,16.60
2022-12-13T10:36:30.332Z,17.95
2022-12-13T10:39:07.413Z,18.58
2022-12-13T10:41:48.306Z,16.38
2022-12-13T10:44:35.403Z,16.35
2022-12-13T10:47:11.737Z,16.40
2022-12-13T10:50:01.708Z,16.67
2022-12-13T10:52:43.724Z,19.02
2022-12-13T10:55:38.650Z,16.70
2022-12-13T10:58:22.408Z,15.07
2022-12-13T11:01:32.823Z,17.50
2022-12-13T11:04:26.915Z,16.40
2022-12-13T11:07:22.785Z,16.88
2022-12-13T11:10:26.628Z,15.60
2022-12-13T11:13:06.383Z,16.67
2022-12-13T11:15:40.282Z,14.35
2022-12-13T11:18:23.508Z,17.10
2022-12-13T11:21:02.156Z,16.65
2022-12-13T11:23:40.024Z,17.13
2022-12-13T11:26:24.366Z,15.63
2022-12-13T11:29:05.697Z,17.70
2022-12-13T11:32:10.041Z,16.52
2022-12-13T11:35:23.226Z,15.30
2022-12-13T11:39:04.494Z,15.05
2022-12-13T11:42:13.602Z,13.50
2022-12-13T11:45:22.238Z,15.20
2022-12-13T11:48:05.057Z,16.50
2022-12-13T11:50:57.418Z,14.98
2022-12-13T11:53:49.776Z,15.32
2022-12-13T11:56:42.666Z,16.30
2022-12-13T11:59:25.860Z,16.38
2022-12-13T12:02:29.577Z,16.60
2022-12-13T12:05:28.381Z,13.95
2022-12-13T12:08:44.224Z,15.60
2022-12-13T12:11:46.581Z,14.88
2022-12-13T12:14:41.904Z,14.70
2022-12-13T12:17:24.913Z,14.93
2022-12-13T12:19:59.010Z,15.13
2022-12-13T12:23:19.057Z,15.20
2022-12-13T12:26:18.677Z,14.75
2022-12-13T12:29:38.568Z,14.50
2022-12-13T12:32:57.872Z,14.63
2022-12-13T12:36:08.371Z,14.75
2022-12-13T12:39:45.629Z,13.43
2022-12-13T12:43:14.467Z,14.25
2022-12-13T12:46:09.121Z,14.52
2022-12-13T12:49:36.446Z,13.75
2022-12-13T12:52:37.965Z,14.00
2022-12-13T12:55:34.810Z,14.70
2022-12-13T12:58:39.110Z,13.40
2022-12-13T13:01:55.986Z,13.25
2022-12-13T13:04:53.001Z,13.40
2022-12-13T13:07:51.370Z,13.50
2022-12-13T13:10:30.473Z,13.52
2022-12-13T13:13:11.421Z,13.73
2022-12-13T13:16:07.057Z,13.05
2022-12-13T13:19:02.823Z,13.27
2022-12-13T13:22:01.601Z,12.40
2022-12-13T13:24:36.014Z,13.65
2022-12-13T13:27:09.257Z,13.23
2022-12-13T13:30:17.756Z,12.57
2022-12-13T13:32:55.873Z,12.10
2022-12-13T13:35:33.437Z,12.73
2022-12-13T13:38:24.044Z,12.02
2022-12-13T13:40:59.621Z,12.88
2022-12-13T13:43:52.156Z,12.90
2022-12-13T13:46:25.128Z,12.90
2022-12-13T13:49:12.323Z,11.48
2022-12-13T13:52:29.687Z,14.30
2022-12-13T13:55:25.742Z,11.23
2022-12-13T13:58:36.771Z,12.25
2022-12-13T14:02:01.064Z,10.75
2022-12-13T14:05:21.882Z,12.30
2022-12-13T14:08:51.672Z,11.00
2022-12-13T14:12:07.879Z,12.10
2022-12-13T14:15:34.184Z,12.10
2022-12-13T14:18:45.165Z,9.60
2022-12-13T14:21:58.576Z,11.70
2022-12-13T14:24:58.566Z,11.23
2022-12-13T14:28:03.124Z,13.38
2022-12-13T14:30:57.532Z,12.00
2022-12-13T14:33:30.531Z,11.90
2022-12-13T14:36:04.314Z,12.30
2022-12-13T14:38:37.112Z,11.38
2022-12-13T14:41:21.459Z,10.05
2022-12-13T14:43:54.578Z,11.23
2022-12-13T14:46:28.438Z,10.02
2022-12-13T14:49:07.500Z,12.50
2022-12-13T14:51:42.826Z,12.85
2022-12-13T14:54:26.110Z,10.48
2022-12-13T14:57:05.339Z,10.80
2022-12-13T14:59:55.485Z,12.15
2022-12-13T15:02:33.193Z,11.68
2022-12-13T15:05:07.660Z,11.25
2022-12-13T15:07:55.954Z,10.40
2022-12-13T15:10:37.765Z,10.70
2022-12-13T15:13:29.380Z,10.05
2022-12-13T15:16:28.982Z,11.30
2022-12-13T15:19:31.153Z,10.65
2022-12-13T15:22:16.146Z,9.88
2022-12-13T15:24:53.890Z,9.93
2022-12-13T15:27:27.622Z,10.60
2022-12-13T15:30:00.494Z,9.90
2022-12-13T15:32:33.813Z,9.32
2022-12-13T15:35:17.169Z,10.55
2022-12-13T15:37:58.403Z,10.63
2022-12-13T15:40:33.428Z,10.15
2022-12-13T15:43:06.765Z,10.85
2022-12-13T15:45:52.009Z,9.43
2022-12-13T15:48:41.717Z,10.38
2022-12-13T15:51:28.745Z,9.90
2022-12-13T15:54:12.551Z,11.38
2022-12-13T15:57:14.550Z,10.52
2022-12-13T16:00:29.996Z,11.82
2022-12-13T16:03:15.052Z,10.63
2022-12-13T16:05:55.767Z,11.60
2022-12-13T16:08:35.988Z,9.70
2022-12-13T16:11:11.003Z,11.07
2022-12-13T16:13:47.482Z,10.20
2022-12-13T16:16:30.296Z,10.50
2022-12-13T16:19:17.776Z,10.65
2022-12-13T16:21:51.178Z,10.63
2022-12-13T16:24:24.049Z,10.80
2022-12-13T16:26:57.733Z,10.55
2022-12-13T16:29:33.891Z,10.88
2022-12-13T16:32:11.367Z,13.65
2022-12-13T16:34:48.724Z,10.88
2022-12-13T16:37:27.559Z,10.82
2022-12-13T16:40:02.112Z,9.88
2022-12-13T16:43:00.843Z,11.18
2022-12-13T16:45:43.386Z,10.10
2022-12-13T16:48:26.599Z,12.10
2022-12-13T16:51:06.464Z,9.45
2022-12-13T16:53:40.320Z,10.63
2022-12-13T16:56:17.028Z,11.80
2022-12-13T16:58:56.906Z,10.73
2022-12-13T17:01:29.734Z,10.98
2022-12-13T17:04:11.765Z,9.65
2022-12-13T17:06:50.574Z,10.18
2022-12-13T17:09:27.065Z,10.18
2022-12-13T17:12:00.331Z,11.07
2022-12-13T17:14:33.384Z,11.00
2022-12-13T17:17:07.210Z,10.00
2022-12-13T17:19:41.067Z,10.43
2022-12-13T17:22:14.193Z,10.95
2022-12-13T17:24:47.247Z,10.65
2022-12-13T17:27:20.573Z,10.02
2022-12-13T17:29:54.287Z,10.55
2022-12-13T17:32:29.372Z,9.75
2022-12-13T17:35:04.553Z,9.90
2022-12-13T17:37:39.128Z,10.00
2022-12-13T17:40:12.261Z,10.38
2022-12-13T17:42:48.921Z,11.05
2022-12-13T17:45:37.204Z,9.82
2022-12-13T17:48:31.598Z,9.23
2022-12-13T17:51:15.110Z,9.52
2022-12-13T17:53:47.750Z,11.73
2022-12-13T17:56:20.494Z,10.15
2022-12-13T17:58:53.119Z,10.52
2022-12-13T18:01:26.983Z,10.10
2022-12-13T18:03:59.513Z,11.85
2022-12-13T18:06:32.769Z,11.85
2022-12-13T18:09:26.062Z,11.32
2022-12-13T18:11:59.916Z,11.27
2022-12-13T18:14:37.119Z,12.18
2022-12-13T18:17:11.208Z,11.98
2022-12-13T18:19:49.816Z,13.68
2022-12-13T18:22:24.600Z,12.52
2022-12-13T18:25:00.116Z,12.57
2022-12-13T18:27:33.425Z,10.88
2022-12-13T18:30:07.460Z,11.90
2022-12-13T18:32:44.362Z,11.65
2022-12-13T18:35:17.734Z,10.75
2022-12-13T18:37:51.106Z,13.02
2022-12-13T18:40:23.851Z,11.27
2022-12-13T18:42:56.950Z,12.07
2022-12-13T18:45:30.297Z,10.98
2022-12-13T18:48:10.651Z,10.38
2022-12-13T18:50:48.781Z,13.02
2022-12-13T18:53:21.796Z,11.50
2022-12-13T18:56:02.846Z,12.88
2022-12-13T18:58:39.704Z,11.05
2022-12-13T19:01:17.447Z,11.82
2022-12-13T19:03:54.197Z,15.55
2022-12-13T19:06:29.327Z,12.75
2022-12-13T19:09:03.650Z,11.88
2022-12-13T19:11:40.205Z,11.35
2022-12-13T19:14:15.391Z,10.85
2022-12-13T19:16:49.894Z,11.68
2022-12-13T19:19:23.978Z,10.48
2022-12-13T19:21:57.223Z,11.45
2022-12-13T19:24:32.685Z,11.23
2022-12-13T19:27:10.249Z,11.20
2022-12-13T19:29:47.478Z,12.35
2022-12-13T19:32:22.086Z,11.23
2022-12-13T19:35:04.053Z,11.85
2022-12-13T19:37:38.880Z,12.70
2022-12-13T19:40:14.218Z,11.93
2022-12-13T19:42:48.474Z,11.52
2022-12-13T19:45:22.434Z,12.60
2022-12-13T19:48:00.223Z,10.45
2022-12-13T19:50:33.520Z,13.15
2022-12-13T19:53:10.927Z,11.35
2022-12-13T19:55:48.255Z,11.20
2022-12-13T19:58:22.349Z,12.15
2022-12-13T20:01:07.958Z,10.95
2022-12-13T20:03:45.805Z,11.85
2022-12-13T20:06:22.456Z,11.88
2022-12-13T20:08:56.866Z,11.40
2022-12-13T20:11:34.807Z,10.18
2022-12-13T20:14:16.851Z,12.30
2022-12-13T20:16:50.767Z,10.98
2022-12-13T20:19:23.843Z,12.00
2022-12-13T20:22:01.464Z,10.95
2022-12-13T20:24:35.225Z,11.35
2022-12-13T20:27:11.522Z,14.27
2022-12-13T20:29:48.536Z,15.10
2022-12-13T20:32:22.773Z,13.05
2022-12-13T20:34:57.204Z,13.32
2022-12-13T20:37:30.527Z,12.35
2022-12-13T20:40:03.836Z,12.63
2022-12-13T20:42:40.025Z,10.40
2022-12-13T20:45:13.254Z,10.10
2022-12-13T20:47:50.401Z,12.80
2022-12-13T20:50:27.067Z,10.93
2022-12-13T20:53:04.380Z,10.55
2022-12-13T20:55:38.754Z,12.00
2022-12-13T20:58:13.974Z,11.10
2022-12-13T21:00:50.657Z,11.70
2022-12-13T21:03:28.971Z,10.73
2022-12-13T21:06:04.466Z,10.43
2022-12-13T21:09:01.220Z,11.27
2022-12-13T21:11:47.185Z,11.48
2022-12-13T21:14:28.271Z,11.25
2022-12-13T21:17:05.434Z,10.43
2022-12-13T21:19:44.078Z,11.48
2022-12-13T21:22:23.169Z,11.23
2022-12-13T21:24:58.184Z,10.23
2022-12-13T21:27:30.958Z,10.40
2022-12-13T21:30:04.377Z,12.52
2022-12-13T21:32:39.195Z,12.48
2022-12-13T21:35:12.149Z,11.73
2022-12-13T21:37:45.031Z,11.40
2022-12-13T21:40:21.962Z,10.13
2022-12-13T21:42:56.360Z,11.75
2022-12-13T21:45:29.181Z,11.35
2022-12-13T21:48:01.532Z,11.68
2022-12-13T21:50:34.017Z,11.60
2022-12-13T21:53:06.786Z,10.18
2022-12-13T21:55:44.206Z,10.77
2022-12-13T21:58:41.056Z,11.40
2022-12-13T22:01:51.465Z,12.95
2022-12-13T22:04:45.491Z,11.80
2022-12-13T22:07:30.010Z,12.27
2022-12-13T22:10:04.504Z,11.98
2022-12-13T22:12:40.864Z,12.82
2022-12-13T22:15:15.446Z,11.00
2022-12-13T22:17:47.797Z,10.85
2022-12-13T22:20:20.351Z,12.05
2022-12-13T22:22:54.181Z,12.35
2022-12-13T22:25:27.692Z,10.48
2022-12-13T22:28:00.365Z,10.90
2022-12-13T22:30:34.281Z,11.23
2022-12-13T22:33:07.028Z,12.00
2022-12-13T22:35:40.613Z,9.75
2022-12-13T22:38:14.231Z,10.73
2022-12-13T22:40:46.908Z,10.40
2022-12-13T22:43:20.811Z,13.35
2022-12-13T22:45:53.125Z,10.93
2022-12-13T22:48:35.821Z,12.15
2022-12-13T22:51:11.875Z,11.55
2022-12-13T22:53:47.764Z,11.43
2022-12-13T22:56:21.970Z,11.13
2022-12-13T22:58:56.449Z,11.27
2022-12-13T23:01:36.589Z,11.20
2022-12-13T23:04:12.015Z,12.18
2022-12-13T23:06:44.042Z,11.20
2022-12-13T23:09:16.399Z,11.10
2022-12-13T23:12:07.376Z,11.90
2022-12-13T23:14:59.198Z,12.38
2022-12-13T23:17:31.623Z,12.23
2022-12-13T23:20:04.599Z,11.68
2022-12-13T23:22:37.418Z,11.88
2022-12-13T23:25:10.086Z,11.20
2022-12-13T23:27:42.532Z,10.98
2022-12-13T23:30:14.743Z,12.52
2022-12-13T23:32:47.213Z,11.85
2022-12-13T23:35:20.037Z,11.73
2022-12-13T23:37:53.063Z,11.57
2022-12-13T23:40:25.632Z,11.10
2022-12-13T23:42:58.052Z,12.98
2022-12-13T23:45:30.293Z,11.63
2022-12-13T23:48:03.591Z,11.60
2022-12-13T23:50:35.989Z,12.18
2022-12-13T23:53:12.878Z,11.10
2022-12-13T23:55:45.427Z,11.02
2022-12-13T23:58:23.096Z,11.38
